createdAt,value
2022-08-05T06:46:07.527Z,100125.25
2022-08-05T06:49:10.662Z,100122.16
2022-08-05T06:52:37.189Z,100124.78
2022-08-05T06:55:37.745Z,100134.25
2022-08-05T06:58:40.667Z,100123.72
2022-08-05T07:01:43.985Z,100119.34
2022-08-05T07:04:48.943Z,100125.91
2022-08-05T07:07:51.974Z,100132.50
2022-08-05T07:10:55.649Z,100129.19
2022-08-05T07:14:20.553Z,100130.25
2022-08-05T07:18:01.692Z,100128.19
2022-08-05T07:20:56.064Z,100137.91
2022-08-05T07:23:59.006Z,100133.38
2022-08-05T07:27:21.563Z,100129.78
2022-08-05T07:30:31.729Z,100135.59
2022-08-05T07:33:37.396Z,100129.66
2022-08-05T07:36:44.250Z,100129.25
2022-08-05T07:40:04.479Z,100128.69
2022-08-05T07:43:20.223Z,100124.13
2022-08-05T07:46:28.728Z,100126.34
2022-08-05T07:49:31.712Z,100130.00
2022-08-05T07:52:41.885Z,100121.75
2022-08-05T07:56:06.323Z,100123.84
2022-08-05T07:59:09.960Z,100128.84
2022-08-05T08:02:15.779Z,100112.09
2022-08-05T08:05:20.358Z,100131.66
2022-08-05T08:08:23.181Z,100121.91
2022-08-05T08:11:50.281Z,100119.44
2022-08-05T08:14:52.806Z,100113.44
2022-08-05T08:17:58.316Z,100113.12
2022-08-05T08:21:09.680Z,100115.69
2022-08-05T08:24:18.821Z,100117.22
2022-08-05T08:27:23.601Z,100111.72
2022-08-05T08:30:47.559Z,100108.91
2022-08-05T08:33:53.127Z,100107.66
2022-08-05T08:37:18.712Z,100109.84
2022-08-05T08:40:22.432Z,100105.56
2022-08-05T08:45:19.740Z,100105.69
2022-08-05T13:35:52.763Z,99884.69
2022-08-05T13:38:55.639Z,99883.41
2022-08-05T13:42:00.031Z,99871.75
2022-08-05T13:45:03.913Z,99872.81
2022-08-05T13:48:56.660Z,99874.69
2022-08-05T13:51:40.415Z,99866.94
2022-08-05T13:54:53.220Z,99865.25
2022-08-05T13:57:58.403Z,99860.88
2022-08-05T14:01:01.775Z,99852.62
2022-08-05T14:04:26.683Z,99853.88
2022-08-05T14:08:00.302Z,99846.19
2022-08-05T14:11:03.099Z,99847.72
2022-08-05T14:14:23.433Z,99841.56
2022-08-05T14:17:33.813Z,99832.78
2022-08-05T14:20:37.420Z,99833.41
2022-08-05T14:23:40.506Z,99827.69
2022-08-05T14:27:01.946Z,99819.00
2022-08-05T14:30:07.115Z,99819.28
2022-08-05T14:33:23.609Z,99814.84
2022-08-05T14:36:27.318Z,99807.88
2022-08-05T14:39:30.129Z,99814.72
2022-08-05T14:42:53.106Z,99808.59
2022-08-05T14:45:55.828Z,99809.66
2022-08-05T14:49:06.532Z,99815.69
2022-08-05T14:52:10.542Z,99814.12
2022-08-05T14:55:21.450Z,99808.50
2022-08-05T14:58:24.503Z,99812.25
2022-08-05T15:01:47.125Z,99800.56
2022-08-05T15:04:51.132Z,99807.50
2022-08-05T15:08:06.035Z,99805.59
2022-08-05T15:11:15.173Z,99807.03
2022-08-05T15:14:34.339Z,99805.69
2022-08-05T15:17:46.840Z,99806.88
2022-08-05T15:20:51.658Z,99792.56
2022-08-05T15:23:54.593Z,99789.50
2022-08-05T15:26:57.663Z,99790.88
2022-08-05T15:30:00.710Z,99791.34
2022-08-05T15:33:04.577Z,99784.38
2022-08-05T15:36:16.919Z,99779.63
2022-08-05T15:40:58.219Z,99780.25
2022-08-05T15:42:56.781Z,99782.25
2022-08-05T15:46:01.788Z,99776.84
2022-08-05T15:49:10.312Z,99772.06
2022-08-05T15:52:16.700Z,99769.34
2022-08-05T15:56:02.557Z,99771.63
2022-08-05T15:58:55.783Z,99766.41
2022-08-05T16:02:01.109Z,99771.31
2022-08-05T16:05:05.188Z,99765.25
2022-08-05T16:08:08.222Z,99771.78
2022-08-05T16:11:11.270Z,99764.53
2022-08-05T16:14:17.048Z,99774.66
2022-08-05T16:17:20.709Z,99763.44
2022-08-05T16:20:23.971Z,99763.16
2022-08-05T16:23:28.295Z,99763.53
2022-08-05T16:26:53.824Z,99770.25
2022-08-05T16:29:56.855Z,99770.81
2022-08-05T16:33:00.258Z,99775.03
2022-08-05T16:36:05.862Z,99774.41
2022-08-05T16:39:09.401Z,99777.59
2022-08-05T16:42:18.549Z,99768.31
2022-08-05T16:46:04.521Z,99768.53
2022-08-05T16:48:54.046Z,99760.84
2022-08-05T16:52:16.447Z,99764.66
2022-08-05T16:55:46.824Z,99764.78
2022-08-05T16:59:11.064Z,99771.69
2022-08-05T17:02:18.189Z,99769.22
2022-08-05T17:05:21.276Z,99775.13
2022-08-05T17:08:33.346Z,99776.25
2022-08-05T17:11:48.571Z,99776.53
2022-08-05T17:14:52.478Z,99778.97
2022-08-05T17:17:55.476Z,99775.47
2022-08-05T17:21:01.109Z,99779.69
2022-08-05T17:24:28.282Z,99788.09
2022-08-05T17:27:34.277Z,99785.94
2022-08-05T17:30:42.377Z,99786.00
2022-08-05T17:33:54.010Z,99785.03
2022-08-05T17:37:00.627Z,99785.34
2022-08-05T17:40:10.894Z,99785.47
2022-08-05T17:43:15.421Z,99782.47
2022-08-05T17:46:20.298Z,99788.63
2022-08-05T17:49:23.876Z,99785.25
2022-08-05T17:52:29.331Z,99787.84
2022-08-05T17:55:39.360Z,99783.97
2022-08-05T17:58:43.766Z,99782.28
2022-08-05T18:01:59.587Z,99786.13
2022-08-05T18:05:06.410Z,99777.63
2022-08-05T18:08:27.332Z,99780.16
2022-08-05T18:11:38.286Z,99787.72
2022-08-05T18:14:42.373Z,99787.13
2022-08-05T18:17:58.994Z,99783.50
2022-08-05T18:21:13.216Z,99782.41
2022-08-05T18:24:23.834Z,99779.06
2022-08-05T18:27:29.660Z,99779.91
2022-08-05T18:30:35.526Z,99788.37
2022-08-05T18:33:47.276Z,99799.47
2022-08-05T18:36:53.549Z,99797.66
2022-08-05T18:41:49.959Z,99802.59
2022-08-05T18:43:21.510Z,99805.50
2022-08-05T18:46:29.071Z,99803.75
2022-08-05T18:49:58.058Z,99801.84
2022-08-05T18:53:02.471Z,99807.41
2022-08-05T18:56:12.607Z,99815.03
2022-08-05T18:59:43.089Z,99803.56
2022-08-05T19:02:39.026Z,99809.47
2022-08-05T19:06:11.727Z,99809.91
2022-08-05T19:09:05.229Z,99810.84
2022-08-05T19:12:10.680Z,99799.97
2022-08-05T19:15:58.259Z,99811.63
2022-08-05T19:18:39.864Z,99809.38
2022-08-05T19:21:43.539Z,99817.25
2022-08-05T19:24:54.359Z,99812.97
2022-08-05T19:27:59.939Z,99811.00
2022-08-05T19:31:04.997Z,99811.41
2022-08-05T19:34:09.117Z,99814.97
2022-08-05T19:37:11.835Z,99821.25
2022-08-05T19:40:15.457Z,99822.03
2022-08-05T19:43:31.318Z,99825.56
2022-08-05T19:46:43.804Z,99822.91
2022-08-05T19:49:50.471Z,99811.19
2022-08-05T19:53:09.525Z,99809.66
2022-08-05T19:56:20.559Z,99817.47
2022-08-05T20:00:02.098Z,99808.94
2022-08-05T20:02:58.750Z,99814.78
2022-08-05T20:06:11.863Z,99815.19
2022-08-05T20:09:19.274Z,99824.88
2022-08-05T20:12:25.121Z,99829.12
2022-08-05T20:15:52.327Z,99828.28
2022-08-05T20:18:55.307Z,99828.22
2022-08-05T20:21:58.402Z,99827.41
2022-08-05T20:25:01.446Z,99824.25
2022-08-05T20:28:06.280Z,99837.03
2022-08-05T20:31:10.278Z,99835.88
2022-08-05T20:34:14.844Z,99835.09
2022-08-05T20:38:04.753Z,99830.69
2022-08-05T20:41:00.614Z,99832.63
2022-08-05T20:44:17.782Z,99837.28
2022-08-05T20:47:31.087Z,99837.62
2022-08-05T20:50:37.706Z,99837.94
2022-08-05T20:53:42.468Z,99842.66
2022-08-05T20:57:00.057Z,99848.59
2022-08-05T21:00:21.155Z,99843.22
2022-08-05T21:03:34.657Z,99849.84
2022-08-05T21:06:45.236Z,99857.53
2022-08-05T21:09:53.842Z,99860.22
2022-08-05T21:13:08.181Z,99860.59
2022-08-05T21:16:14.312Z,99865.53
2022-08-05T21:19:17.050Z,99863.16
2022-08-05T21:22:23.990Z,99862.53
2022-08-05T21:25:33.398Z,99857.03
2022-08-05T21:28:38.905Z,99854.88
2022-08-05T21:31:41.963Z,99856.41
2022-08-05T21:34:45.049Z,99861.81
2022-08-05T21:38:07.763Z,99861.63
2022-08-05T21:41:12.061Z,99865.59
2022-08-05T21:44:14.743Z,99876.69
2022-08-05T21:47:55.257Z,99864.66
2022-08-05T21:50:42.273Z,99866.09
2022-08-05T21:54:03.661Z,99872.13
2022-08-05T21:57:30.710Z,99875.56
2022-08-05T22:00:30.110Z,99872.41
2022-08-05T22:03:52.768Z,99878.13
2022-08-05T22:06:57.000Z,99879.81
2022-08-05T22:10:00.501Z,99878.91
2022-08-05T22:13:09.334Z,99885.25
2022-08-05T22:16:50.749Z,99880.97
2022-08-05T22:20:02.879Z,99887.41
2022-08-05T22:24:02.299Z,99888.69
2022-08-05T22:27:14.052Z,99888.88
2022-08-05T22:30:20.398Z,99885.91
2022-08-05T22:33:56.788Z,99887.75
2022-08-05T22:36:48.060Z,99882.25
2022-08-05T22:39:51.016Z,99888.69
2022-08-05T22:42:58.496Z,99887.19
2022-08-05T22:46:04.636Z,99884.72
2022-08-05T22:49:12.422Z,99889.38
2022-08-05T22:52:34.719Z,99886.00
2022-08-05T22:55:57.030Z,99879.72
2022-08-05T22:59:04.672Z,99879.63
2022-08-05T23:02:29.766Z,99879.37
2022-08-05T23:05:36.116Z,99874.78
2022-08-05T23:08:39.351Z,99870.66
2022-08-05T23:11:46.542Z,99886.06
2022-08-05T23:14:52.383Z,99880.06
